createdAt,value
2022-08-01T00:02:00.398Z,101494.00
2022-08-01T00:04:28.679Z,101492.22
2022-08-01T00:06:56.867Z,101485.13
2022-08-01T00:09:25.096Z,101498.38
2022-08-01T00:11:59.766Z,101495.84
2022-08-01T00:14:32.456Z,101499.38
2022-08-01T00:17:07.441Z,101503.78
2022-08-01T00:19:37.606Z,101498.47
2022-08-01T00:22:06.068Z,101497.56
2022-08-01T00:24:34.587Z,101501.13
2022-08-01T00:27:04.134Z,101508.16
2022-08-01T00:30:12.078Z,101507.28
2022-08-01T00:32:20.544Z,101505.50
2022-08-01T00:34:48.782Z,101509.13
2022-08-01T00:37:17.629Z,101514.53
2022-08-01T00:39:45.794Z,101512.88
2022-08-01T00:42:18.537Z,101510.22
2022-08-01T00:44:46.685Z,101518.09
2022-08-01T00:47:18.152Z,101518.03
2022-08-01T00:49:46.427Z,101518.00
2022-08-01T00:52:17.679Z,101522.44
2022-08-01T00:54:46.383Z,101523.38
2022-08-01T00:57:16.011Z,101520.69
2022-08-01T00:59:56.154Z,101518.09
2022-08-01T01:02:25.036Z,101519.84
2022-08-01T01:04:53.176Z,101534.03
2022-08-01T01:07:31.565Z,101530.41
2022-08-01T01:10:05.816Z,101524.19
2022-08-01T01:12:41.809Z,101523.38
2022-08-01T01:15:17.951Z,101526.88
2022-08-01T01:17:52.076Z,101525.06
2022-08-01T01:20:23.662Z,101520.69
2022-08-01T01:23:09.599Z,101522.53
2022-08-01T01:26:08.073Z,101518.19
2022-08-01T01:28:48.068Z,101525.31
2022-08-01T01:31:23.731Z,101527.06
2022-08-01T01:33:53.084Z,101529.72
2022-08-01T01:36:24.959Z,101526.19
2022-08-01T01:38:55.021Z,101534.13
2022-08-01T01:41:24.410Z,101535.00
2022-08-01T01:43:54.095Z,101537.72
2022-08-01T01:46:27.950Z,101551.88
2022-08-01T01:48:58.414Z,101544.00
2022-08-01T01:51:29.544Z,101536.03
2022-08-01T01:53:59.915Z,101539.56
2022-08-01T01:56:29.743Z,101540.41
2022-08-01T01:59:03.797Z,101543.16
2022-08-01T02:01:58.748Z,101544.97
2022-08-01T02:04:26.646Z,101543.28
2022-08-01T02:06:55.781Z,101555.78
2022-08-01T02:09:25.583Z,101560.28
2022-08-01T02:12:07.544Z,101562.09
2022-08-01T02:14:40.958Z,101559.63
2022-08-01T02:17:13.304Z,101561.56
2022-08-01T02:19:41.788Z,101568.69
2022-08-01T02:22:13.875Z,101565.19
2022-08-01T02:24:51.638Z,101563.44
2022-08-01T02:27:28.135Z,101580.38
2022-08-01T02:30:03.495Z,101568.91
2022-08-01T02:32:39.077Z,101578.69
2022-08-01T02:35:12.094Z,101571.66
2022-08-01T02:37:41.711Z,101583.13
2022-08-01T02:40:15.437Z,101581.38
2022-08-01T02:42:48.681Z,101576.06
2022-08-01T02:45:20.074Z,101592.00
2022-08-01T02:47:52.401Z,101591.13
2022-08-01T02:50:21.331Z,101591.19
2022-08-01T02:52:52.997Z,101597.47
2022-08-01T02:55:23.689Z,101595.75
2022-08-01T02:58:00.096Z,101596.69
2022-08-01T03:00:30.351Z,101595.91
2022-08-01T03:03:01.864Z,101597.69
2022-08-01T03:05:30.605Z,101607.41
2022-08-01T03:08:02.713Z,101608.31
2022-08-01T03:10:33.659Z,101605.66
2022-08-01T03:13:03.619Z,101604.72
2022-08-01T03:15:36.770Z,101612.69
2022-08-01T03:18:09.062Z,101613.53
2022-08-01T03:20:37.687Z,101618.78
2022-08-01T03:23:09.865Z,101613.44
2022-08-01T03:25:41.880Z,101614.28
2022-08-01T03:28:11.240Z,101618.63
2022-08-01T03:30:41.565Z,101614.19
2022-08-01T03:33:14.500Z,101621.22
2022-08-01T03:35:57.393Z,101628.28
2022-08-01T03:38:29.412Z,101621.16
2022-08-01T03:41:01.767Z,101629.13
2022-08-01T03:43:39.466Z,101634.44
2022-08-01T03:46:10.908Z,101640.59
2022-08-01T03:48:45.673Z,101627.34
2022-08-01T03:51:16.070Z,101630.94
2022-08-01T03:53:49.915Z,101637.97
2022-08-01T03:56:21.545Z,101630.00
2022-08-01T03:58:52.701Z,101622.03
2022-08-01T04:01:21.564Z,101617.66
2022-08-01T04:03:51.604Z,101614.06
2022-08-01T04:06:19.879Z,101613.22
2022-08-01T04:08:56.598Z,101611.41
2022-08-01T04:11:29.879Z,101616.72
2022-08-01T04:13:58.546Z,101618.50
2022-08-01T04:16:27.485Z,101627.34
2022-08-01T04:18:57.335Z,101634.53
2022-08-01T04:21:29.629Z,101639.06
2022-08-01T04:24:04.437Z,101625.88
2022-08-01T04:26:34.588Z,101635.66
2022-08-01T04:29:05.842Z,101646.25
2022-08-01T04:31:35.178Z,101643.59
2022-08-01T04:34:06.936Z,101650.63
2022-08-01T04:36:39.183Z,101658.53
2022-08-01T04:39:08.988Z,101659.44
2022-08-01T04:41:38.723Z,101664.69
2022-08-01T04:44:07.806Z,101664.69
2022-08-01T04:46:37.838Z,101663.69
2022-08-01T04:49:10.392Z,101671.72
2022-08-01T04:51:38.650Z,101677.88
2022-08-01T04:54:08.360Z,101677.03
2022-08-01T04:56:36.574Z,101688.53
2022-08-01T04:59:22.295Z,101682.38
2022-08-01T05:01:53.264Z,101683.28
2022-08-01T05:04:22.742Z,101685.06
2022-08-01T05:06:50.900Z,101689.50
2022-08-01T05:09:19.039Z,101686.88
2022-08-01T05:11:47.177Z,101687.75
2022-08-01T05:14:15.486Z,101689.53
2022-08-01T05:16:43.687Z,101696.56
2022-08-01T05:19:11.920Z,101694.75
2022-08-01T05:21:41.459Z,101695.53
2022-08-01T05:24:09.738Z,101701.69
2022-08-01T05:26:39.641Z,101698.03
2022-08-01T05:29:08.146Z,101698.84
2022-08-01T05:31:36.399Z,101698.78
2022-08-01T05:34:06.049Z,101705.81
2022-08-01T05:36:44.691Z,101708.38
2022-08-01T05:39:13.010Z,101710.19
2022-08-01T05:41:41.811Z,101711.03
2022-08-01T05:44:11.374Z,101722.50
2022-08-01T05:46:39.767Z,101722.44
2022-08-01T05:49:08.336Z,101724.13
2022-08-01T05:51:38.877Z,101725.91
2022-08-01T05:54:08.475Z,101729.38
2022-08-01T05:56:36.632Z,101729.34
2022-08-01T05:59:05.108Z,101738.16
2022-08-01T06:01:33.791Z,101732.00
2022-08-01T06:04:01.996Z,101732.88
2022-08-01T06:06:30.259Z,101731.91
2022-08-01T06:08:58.460Z,101728.22
2022-08-01T06:11:28.011Z,101726.25
2022-08-01T06:13:56.149Z,101731.53
2022-08-01T06:16:24.517Z,101733.06
2022-08-01T06:18:56.528Z,101732.03
2022-08-01T06:21:25.116Z,101745.22
2022-08-01T06:23:53.357Z,101746.16
2022-08-01T06:26:22.056Z,101747.91
2022-08-01T06:28:51.544Z,101754.91
2022-08-01T06:31:19.754Z,101752.19
2022-08-01T06:33:47.943Z,101752.97
2022-08-01T06:36:16.088Z,101758.22
2022-08-01T06:38:44.236Z,101752.78
2022-08-01T06:41:14.944Z,101760.69
2022-08-01T06:43:43.068Z,101757.91
2022-08-01T06:46:12.627Z,101765.72
2022-08-01T06:48:41.006Z,101764.75
2022-08-01T06:51:14.850Z,101770.91
2022-08-01T06:53:45.467Z,101768.22
2022-08-01T06:56:13.847Z,101767.25
2022-08-01T06:58:42.119Z,101775.97
2022-08-01T07:01:10.745Z,101766.09
2022-08-01T07:03:54.063Z,101777.47
2022-08-01T07:06:24.698Z,101779.16
2022-08-01T07:08:53.229Z,101779.94
2022-08-01T07:11:21.656Z,101778.25
2022-08-01T07:13:51.525Z,101781.00
2022-08-01T07:16:23.083Z,101784.59
2022-08-01T07:18:52.834Z,101787.31
2022-08-01T07:21:40.031Z,101787.31
2022-08-01T07:24:13.793Z,101795.28
2022-08-01T07:26:52.244Z,101798.00
2022-08-01T07:29:23.608Z,101797.13
2022-08-01T07:31:51.836Z,101801.34
2022-08-01T07:34:21.455Z,101803.88
2022-08-01T07:36:49.679Z,101804.56
2022-08-01T07:39:17.879Z,101811.44
2022-08-01T07:42:05.790Z,101805.94
2022-08-01T07:44:36.604Z,101812.81
2022-08-01T07:47:05.630Z,101821.41
2022-08-01T07:49:40.049Z,101812.34
2022-08-01T07:52:09.515Z,101806.72
2022-08-01T07:54:38.137Z,101822.38
2022-08-01T07:57:08.164Z,101822.38
2022-08-01T07:59:38.791Z,101820.47
2022-08-01T08:02:10.397Z,101820.19
2022-08-01T08:04:40.355Z,101826.28
2022-08-01T08:07:08.909Z,101825.34
2022-08-01T08:09:38.391Z,101820.78
2022-08-01T08:12:08.924Z,101822.09
2022-08-01T08:14:37.346Z,101830.38
2022-08-01T08:17:06.143Z,101828.88
2022-08-01T08:19:38.126Z,101830.09
2022-08-01T08:22:09.617Z,101826.91
2022-08-01T08:24:46.086Z,101836.66
2022-08-01T08:27:15.299Z,101830.78
2022-08-01T08:29:43.840Z,101838.50
2022-08-01T08:32:13.425Z,101840.81
2022-08-01T08:34:44.306Z,101848.59
2022-08-01T08:37:13.962Z,101842.94
2022-08-01T08:39:42.672Z,101846.53
2022-08-01T08:42:14.243Z,101842.84
2022-08-01T08:44:44.442Z,101842.47
2022-08-01T08:47:20.096Z,101846.56
2022-08-01T08:49:50.906Z,101849.09
2022-08-01T08:52:24.232Z,101844.19
2022-08-01T08:54:53.869Z,101844.44
2022-08-01T08:57:23.034Z,101849.88
2022-08-01T08:59:55.092Z,101848.13
2022-08-01T09:02:24.624Z,101861.09
2022-08-01T09:04:53.023Z,101852.47
2022-08-01T09:07:23.903Z,101872.34
2022-08-01T09:09:52.514Z,101864.19
2022-08-01T09:12:21.491Z,101868.44
2022-08-01T09:14:54.401Z,101872.13
2022-08-01T09:17:25.469Z,101869.69
2022-08-01T09:19:57.825Z,101878.34
2022-08-01T09:22:35.093Z,101875.75
2022-08-01T09:25:10.382Z,101883.69
2022-08-01T09:27:43.871Z,101884.72
2022-08-01T09:30:17.271Z,101894.38
2022-08-01T09:33:11.553Z,101899.28
2022-08-01T09:35:56.455Z,101895.38
2022-08-01T09:38:28.436Z,101896.66
2022-08-01T09:40:58.869Z,101903.28
2022-08-01T09:43:29.626Z,101903.25
2022-08-01T09:46:00.893Z,101903.03
2022-08-01T09:48:29.971Z,101895.84
2022-08-01T09:51:07.481Z,101901.03
2022-08-01T09:53:52.143Z,101899.59
2022-08-01T09:56:24.033Z,101904.53
2022-08-01T09:59:02.330Z,101904.28
2022-08-01T10:01:44.521Z,101897.50
2022-08-01T10:04:15.533Z,101913.09
2022-08-01T10:06:50.845Z,101900.63
2022-08-01T10:09:40.353Z,101899.88
2022-08-01T10:12:15.464Z,101903.66
2022-08-01T10:14:46.033Z,101901.69
2022-08-01T10:17:20.078Z,101900.03
2022-08-01T10:19:51.368Z,101900.31
2022-08-01T10:22:22.358Z,101906.06
2022-08-01T10:24:57.120Z,101898.91
2022-08-01T10:27:38.174Z,101902.53
2022-08-01T10:30:19.957Z,101899.44
2022-08-01T10:32:55.035Z,101908.53
2022-08-01T10:35:46.711Z,101906.34
2022-08-01T10:38:15.343Z,101902.53
2022-08-01T10:40:46.316Z,101896.72
2022-08-01T10:43:21.821Z,101906.25
2022-08-01T10:45:55.056Z,101907.38
2022-08-01T10:48:31.577Z,101903.44
2022-08-01T10:51:17.706Z,101899.81
2022-08-01T10:53:54.291Z,101906.41
2022-08-01T10:56:26.879Z,101892.59
2022-08-01T10:59:06.503Z,101899.31
2022-08-01T11:01:44.679Z,101902.38
2022-08-01T11:04:17.040Z,101904.53
2022-08-01T11:06:56.235Z,101898.50
2022-08-01T11:09:36.232Z,101896.72
2022-08-01T11:12:13.650Z,101917.75
2022-08-01T11:15:28.806Z,101923.28
2022-08-01T11:18:01.685Z,101920.59
2022-08-01T11:20:33.940Z,101915.97
2022-08-01T11:23:29.422Z,101917.41
2022-08-01T11:26:29.143Z,101918.38
2022-08-01T11:29:21.905Z,101915.53
2022-08-01T11:31:52.997Z,101919.91
2022-08-01T11:34:21.816Z,101921.00
2022-08-01T11:37:09.639Z,101921.19
2022-08-01T11:39:38.999Z,101926.41
2022-08-01T11:42:23.061Z,101916.22
2022-08-01T11:44:53.264Z,101915.00
2022-08-01T11:47:49.780Z,101920.88
2022-08-01T11:50:35.531Z,101924.72
2022-08-01T11:53:06.012Z,101920.81
2022-08-01T11:55:36.001Z,101927.25
2022-08-01T11:58:06.511Z,101918.69
2022-08-01T12:00:37.569Z,101916.34
2022-08-01T12:03:21.554Z,101917.78
2022-08-01T12:06:01.803Z,101919.22
2022-08-01T12:08:35.767Z,101918.59
2022-08-01T12:11:06.726Z,101919.44
2022-08-01T12:13:45.468Z,101921.97
2022-08-01T12:16:15.431Z,101914.31
2022-08-01T12:18:44.644Z,101918.16
2022-08-01T12:21:16.002Z,101916.34
2022-08-01T12:23:44.138Z,101923.94
2022-08-01T12:26:29.399Z,101931.00
2022-08-01T12:29:00.350Z,101929.34
2022-08-01T12:31:38.396Z,101928.78
2022-08-01T12:34:27.508Z,101924.38
2022-08-01T12:36:56.827Z,101929.25
2022-08-01T12:39:31.812Z,101931.41
2022-08-01T12:42:00.030Z,101921.50
2022-08-01T12:44:30.103Z,101922.75
2022-08-01T12:47:00.385Z,101931.31
2022-08-01T12:49:30.700Z,101922.75
2022-08-01T12:51:59.542Z,101916.81
2022-08-01T12:54:27.629Z,101919.81
2022-08-01T12:56:56.372Z,101913.59
2022-08-01T12:59:27.898Z,101914.16
2022-08-01T13:01:59.465Z,101916.75
2022-08-01T13:04:31.854Z,101914.31
2022-08-01T13:07:00.003Z,101908.31
2022-08-01T13:09:29.291Z,101911.25
2022-08-01T13:12:04.685Z,101917.81
2022-08-01T13:14:33.284Z,101918.22
2022-08-01T13:17:01.438Z,101917.09
2022-08-01T13:22:35.727Z,101914.25
2022-08-01T13:25:20.828Z,101913.34
2022-08-01T13:28:17.571Z,101918.22
2022-08-01T13:31:01.385Z,101915.88
2022-08-01T13:33:42.798Z,101918.41
2022-08-01T13:36:11.439Z,101922.09
2022-08-01T13:38:59.475Z,101926.53
2022-08-01T13:41:27.744Z,101925.28
2022-08-01T13:43:58.227Z,101924.00
2022-08-01T13:46:29.524Z,101921.81
2022-08-01T13:48:59.148Z,101926.28
2022-08-01T13:51:33.725Z,101923.66
2022-08-01T13:54:03.575Z,101919.50
2022-08-01T13:56:31.846Z,101921.38
2022-08-01T13:58:59.983Z,101927.97
2022-08-01T14:01:34.240Z,101915.16
2022-08-01T14:04:03.529Z,101909.81
2022-08-01T14:06:31.836Z,101918.13
2022-08-01T14:08:59.967Z,101913.72
2022-08-01T14:11:37.245Z,101912.19
2022-08-01T14:14:08.419Z,101911.81
2022-08-01T14:16:38.517Z,101908.97
2022-08-01T14:19:07.023Z,101906.91
2022-08-01T14:21:35.758Z,101905.81
2022-08-01T14:24:03.977Z,101904.41
2022-08-01T14:26:36.212Z,101898.69
2022-08-01T14:29:04.899Z,101891.31
2022-08-01T14:31:34.516Z,101894.03
2022-08-01T14:34:03.199Z,101895.63
2022-08-01T14:36:38.109Z,101890.19
2022-08-01T14:39:07.082Z,101893.22
2022-08-01T14:41:44.302Z,101886.41
2022-08-01T14:44:14.590Z,101891.66
2022-08-01T14:46:57.796Z,101894.41
2022-08-01T14:49:29.063Z,101890.69
2022-08-01T14:51:57.229Z,101895.97
2022-08-01T14:54:29.465Z,101889.59
2022-08-01T14:56:59.422Z,101894.72
2022-08-01T14:59:27.718Z,101893.00
2022-08-01T15:01:55.913Z,101893.81
2022-08-01T15:04:24.062Z,101897.00
2022-08-01T15:06:52.209Z,101894.59
2022-08-01T15:09:23.415Z,101889.16
2022-08-01T15:11:51.608Z,101896.41
2022-08-01T15:14:39.899Z,101890.00
2022-08-01T15:17:08.817Z,101892.25
2022-08-01T15:19:40.356Z,101886.59
2022-08-01T15:22:10.682Z,101888.56
2022-08-01T15:24:38.995Z,101883.47
2022-08-01T15:27:07.463Z,101885.56
2022-08-01T15:29:37.119Z,101882.00
2022-08-01T15:32:08.215Z,101882.94
2022-08-01T15:34:37.682Z,101888.38
2022-08-01T15:37:07.084Z,101892.41
2022-08-01T15:39:37.583Z,101882.38
2022-08-01T15:42:12.121Z,101877.56
2022-08-01T15:44:46.602Z,101865.25
2022-08-01T15:47:14.841Z,101871.03
2022-08-01T15:49:43.110Z,101887.66
2022-08-01T15:52:21.454Z,101892.09
2022-08-01T15:54:51.547Z,101886.97
2022-08-01T15:57:19.915Z,101875.34
2022-08-01T15:59:49.389Z,101879.03
2022-08-01T16:02:17.677Z,101881.50
2022-08-01T16:04:45.857Z,101885.13
2022-08-01T16:07:13.992Z,101881.69
2022-08-01T16:09:42.251Z,101886.97
2022-08-01T16:12:10.940Z,101889.94
2022-08-01T16:14:39.076Z,101884.53
2022-08-01T16:17:08.611Z,101883.50
2022-08-01T16:19:36.761Z,101883.97
2022-08-01T16:22:05.233Z,101889.69
2022-08-01T16:24:33.669Z,101883.94
2022-08-01T16:27:01.785Z,101896.28
2022-08-01T16:29:31.938Z,101890.47
2022-08-01T16:32:06.712Z,101889.13
2022-08-01T16:34:52.970Z,101890.88
2022-08-01T16:37:23.819Z,101902.06
2022-08-01T16:39:51.933Z,101897.66
2022-08-01T16:42:27.635Z,101906.63
2022-08-01T16:44:56.019Z,101895.63
2022-08-01T16:47:24.234Z,101903.22
2022-08-01T16:49:53.750Z,101900.78
2022-08-01T16:52:28.566Z,101901.53
2022-08-01T16:54:58.038Z,101894.69
2022-08-01T16:57:26.193Z,101898.38
2022-08-01T16:59:54.366Z,101905.34
2022-08-01T17:02:25.087Z,101896.56
2022-08-01T17:04:56.103Z,101892.94
2022-08-01T17:07:24.503Z,101899.59
2022-08-01T17:09:52.745Z,101897.38
2022-08-01T17:12:22.241Z,101900.84
2022-08-01T17:14:51.350Z,101897.00
2022-08-01T17:17:19.498Z,101902.72
2022-08-01T17:19:54.512Z,101895.94
2022-08-01T17:22:27.756Z,101881.78
2022-08-01T17:24:58.355Z,101893.16
2022-08-01T17:27:26.545Z,101888.75
2022-08-01T17:29:57.521Z,101887.44
2022-08-01T17:32:28.249Z,101881.56
2022-08-01T17:34:56.418Z,101890.75
2022-08-01T17:37:27.244Z,101886.78
2022-08-01T17:39:55.434Z,101885.16
2022-08-01T17:42:25.621Z,101890.53
2022-08-01T17:44:57.066Z,101883.53
2022-08-01T17:47:49.355Z,101891.91
2022-08-01T17:50:15.323Z,101901.94
2022-08-01T17:52:46.124Z,101896.44
2022-08-01T17:55:55.848Z,101895.94
2022-08-01T17:58:05.162Z,101899.66
2022-08-01T18:00:34.258Z,101900.16
2022-08-01T18:03:02.596Z,101900.78
2022-08-01T18:05:59.317Z,101900.38
2022-08-01T18:08:31.708Z,101901.66
2022-08-01T18:11:00.277Z,101906.78
2022-08-01T18:13:29.265Z,101906.38
2022-08-01T18:15:58.099Z,101903.66
2022-08-01T18:18:33.506Z,101899.13
2022-08-01T18:21:02.660Z,101905.03
2022-08-01T18:23:33.708Z,101907.59
2022-08-01T18:26:07.409Z,101909.00
2022-08-01T18:28:41.718Z,101910.28
2022-08-01T18:31:16.868Z,101906.16
2022-08-01T18:33:47.420Z,101904.91
2022-08-01T18:36:32.097Z,101904.41
2022-08-01T18:39:10.151Z,101903.22
2022-08-01T18:41:40.966Z,101906.53
2022-08-01T18:44:12.454Z,101903.69
2022-08-01T18:46:41.414Z,101907.19
2022-08-01T18:49:12.267Z,101910.56
2022-08-01T18:51:44.825Z,101912.41
2022-08-01T18:54:16.015Z,101913.56
2022-08-01T18:56:45.144Z,101918.38
2022-08-01T18:59:15.832Z,101912.63
2022-08-01T19:01:44.378Z,101922.69
2022-08-01T19:04:17.385Z,101920.69
2022-08-01T19:06:48.641Z,101922.63
2022-08-01T19:09:20.804Z,101929.41
2022-08-01T19:11:49.244Z,101917.06
2022-08-01T19:14:17.586Z,101912.50
2022-08-01T19:16:45.813Z,101910.31
2022-08-01T19:19:27.667Z,101924.13
2022-08-01T19:21:56.570Z,101918.28
2022-08-01T19:24:26.107Z,101919.28
2022-08-01T19:26:56.637Z,101921.97
2022-08-01T19:29:36.017Z,101926.34
2022-08-01T19:32:06.675Z,101932.38
2022-08-01T19:34:37.956Z,101927.69
2022-08-01T19:37:06.965Z,101931.84
2022-08-01T19:39:36.704Z,101940.34
2022-08-01T19:42:05.615Z,101932.81
2022-08-01T19:44:36.039Z,101925.25
2022-08-01T19:47:06.333Z,101943.41
2022-08-01T19:49:34.922Z,101943.78
2022-08-01T19:52:05.147Z,101935.19
2022-08-01T19:54:38.085Z,101943.50
2022-08-01T19:57:09.003Z,101948.19
2022-08-01T19:59:39.879Z,101948.44
2022-08-01T20:02:09.096Z,101945.13
2022-08-01T20:04:37.413Z,101953.25
2022-08-01T20:07:09.289Z,101952.53
2022-08-01T20:09:41.320Z,101949.13
2022-08-01T20:12:10.472Z,101944.00
2022-08-01T20:14:38.643Z,101948.53
2022-08-01T20:17:09.299Z,101946.91
2022-08-01T20:19:37.461Z,101939.97
2022-08-01T20:22:07.876Z,101938.28
2022-08-01T20:24:45.958Z,101952.50
2022-08-01T20:27:16.407Z,101951.72
2022-08-01T20:29:46.447Z,101956.25
2022-08-01T20:32:15.644Z,101936.91
2022-08-01T20:34:46.346Z,101947.53
2022-08-01T20:37:14.908Z,101945.84
2022-08-01T20:39:45.307Z,101943.25
2022-08-01T20:42:14.830Z,101960.03
2022-08-01T20:44:46.437Z,101950.38
2022-08-01T20:47:15.624Z,101955.75
2022-08-01T20:49:46.822Z,101959.31
2022-08-01T20:52:19.350Z,101951.44
2022-08-01T20:54:48.942Z,101950.53
2022-08-01T20:57:25.422Z,101959.41
2022-08-01T21:00:01.905Z,101948.00
2022-08-01T21:02:42.591Z,101949.78
2022-08-01T21:05:14.444Z,101945.41
2022-08-01T21:07:51.083Z,101948.09
2022-08-01T21:10:26.013Z,101952.47
2022-08-01T21:13:03.478Z,101944.59
2022-08-01T21:15:34.773Z,101940.19
2022-08-01T21:18:12.757Z,101937.56
2022-08-01T21:20:49.519Z,101936.69
2022-08-01T21:23:34.591Z,101937.56
2022-08-01T21:26:07.999Z,101932.28
2022-08-01T21:28:54.464Z,101934.06
2022-08-01T21:31:37.658Z,101935.84
2022-08-01T21:34:12.513Z,101934.97
2022-08-01T21:36:45.450Z,101944.69
2022-08-01T21:39:14.421Z,101958.78
2022-08-01T21:41:56.311Z,101957.00
2022-08-01T21:44:35.177Z,101966.69
2022-08-01T21:47:04.867Z,101962.31
2022-08-01T21:49:33.331Z,101968.41
2022-08-01T21:52:09.241Z,101971.06
2022-08-01T21:54:59.954Z,101972.84
2022-08-01T21:57:45.668Z,101973.72
2022-08-01T22:00:25.014Z,101966.69
2022-08-01T22:03:15.160Z,101965.78
2022-08-01T22:05:50.097Z,101964.03
2022-08-01T22:08:30.095Z,101963.13
2022-08-01T22:11:01.724Z,101967.53
2022-08-01T22:13:31.321Z,101966.63
2022-08-01T22:16:00.386Z,101964.88
2022-08-01T22:18:29.018Z,101959.59
2022-08-01T22:20:57.577Z,101969.25
2022-08-01T22:23:25.884Z,101961.34
2022-08-01T22:25:57.729Z,101956.06
2022-08-01T22:28:26.192Z,101958.69
2022-08-01T22:30:56.355Z,101957.81
2022-08-01T22:33:25.343Z,101948.13
2022-08-01T22:35:56.546Z,101948.09
2022-08-01T22:38:26.145Z,101946.34
2022-08-01T22:41:00.866Z,101945.44
2022-08-01T22:43:37.801Z,101954.22
2022-08-01T22:46:26.265Z,101948.94
2022-08-01T22:49:03.264Z,101952.44
2022-08-01T22:51:54.837Z,101955.94
2022-08-01T22:54:31.490Z,101948.03
2022-08-01T22:57:07.216Z,101948.00
2022-08-01T22:59:49.941Z,101953.28
2022-08-01T23:02:21.744Z,101956.78
2022-08-01T23:04:51.302Z,101958.56
2022-08-01T23:07:23.262Z,101956.78
2022-08-01T23:09:54.844Z,101955.03
2022-08-01T23:12:25.466Z,101956.78
2022-08-01T23:14:56.498Z,101960.28
2022-08-01T23:17:29.737Z,101956.78
2022-08-01T23:20:00.939Z,101947.97
2022-08-01T23:22:32.165Z,101953.25
2022-08-01T23:25:05.447Z,101951.50
2022-08-01T23:27:51.255Z,101946.22
2022-08-01T23:30:28.464Z,101947.97
2022-08-01T23:32:58.705Z,101951.50
2022-08-01T23:35:28.017Z,101948.00
2022-08-01T23:38:02.366Z,101940.09
2022-08-01T23:40:32.258Z,101945.38
2022-08-01T23:43:01.460Z,101939.22
2022-08-01T23:45:36.013Z,101935.72
2022-08-01T23:48:20.014Z,101929.53
2022-08-01T23:50:48.156Z,101924.28
2022-08-01T23:53:16.337Z,101927.81
2022-08-01T23:55:44.640Z,101923.41
2022-08-01T23:58:12.946Z,101917.25
